Aguilar, Colorado
Current Conditions -  °F | °C
As of 10:54 AM on Friday 31 Oct 2014 (Local Time) from KTAD Reporting Station
Clear Clear  
Wind Chill: 12°   Ceiling: Unl
Heat Index: 12°   Visibility: 10mi
Dew Point: -3°   Wind: 8mph
Humidity: 35%   Direction: 100°E
Pressure: 30.35"   Gusts: NA
Location:  37.4°N, 104.65°W
Report Text: KTAD 311654Z AUTO 10007KT 10SM CLR 12/M03 A3035 RMK AO2 SLP253 T01171033
Loading
Personal Weather Stations






























Interactive Weather Map
Tropical Storm Tracking
New forecast layout! Learn more

10-Day Weather Forecast

Advertisements
Track Severe Weather on mobile